»·PEaware :: N55NT KSNA-KTNP

N55NT :: KSNA-KTNP

FLIGHT INFORMATION

Flight Status: Arrived
Operator: Privately registered:
United States
More flights under this callsign
Pilot: Craig H. (6968)
Aircraft: SOCATA TBM-900
(TBM9)
More flights by this aircraft type
Origin: KSNA John Wayne-Orange Co
United States
Destination: KTNP Twentynine Palms
United States
More flights between these airports :: More routes between these airports
Route: SLI V64 TRM TNP
File this flight plan on PilotEdge
Remarks:
Altitude:
(Current/Filed)
13,000ft
Speed:
(Current/Filed)
210kts
Departed: 24-Mar-20 10:00 AM
Arrived: 24-Mar-20 10:32 AM
Distance/Time
Traveled:
90nm/0:32
Distance/Time
To Go:
Arrived

Flight Plot

Page will automatically refresh every two minutes.

Flight plan parsing failed; only flown route is shown


Map Options




Map Legend


Flown Route
Filed Route
Departure Airport
Arrival Airport
Navaid (VOR, NDB)
Fix

Horizontal Profiles

Position Reports

Time Latitude Longitude Heading Altitude Ground
Speed
24-Mar-20 09:45 33.665955 -117.872962 35 59ft 0kts
24-Mar-20 09:46 33.665955 -117.872962 35 59ft 0kts
24-Mar-20 09:47 33.665956 -117.872962 35 59ft 0kts
24-Mar-20 09:48 33.665956 -117.872962 35 59ft 0kts
24-Mar-20 09:49 33.665956 -117.872962 35 59ft 0kts
24-Mar-20 09:50 33.665956 -117.872962 35 59ft 0kts
24-Mar-20 09:51 33.665956 -117.872962 35 59ft 0kts
24-Mar-20 09:52 33.665956 -117.872962 35 59ft 0kts
24-Mar-20 09:53 33.666170 -117.873132 306 59ft 2kts
24-Mar-20 09:54 33.667525 -117.872606 38 59ft 12kts
24-Mar-20 09:55 33.670732 -117.869270 41 59ft 17kts
24-Mar-20 09:56 33.674409 -117.866907 28 59ft 14kts
24-Mar-20 09:57 33.679312 -117.863798 28 59ft 16kts
24-Mar-20 09:58 33.680299 -117.864385 297 59ft 11kts
24-Mar-20 09:59 33.670177 -117.871712 202 584ft 106kts
24-Mar-20 10:00 33.635416 -117.874850 186 2812ft 145kts
24-Mar-20 10:01 33.593797 -117.877743 186 5096ft 151kts
24-Mar-20 10:02 33.576493 -117.840234 81 7231ft 172kts
24-Mar-20 10:03 33.583596 -117.782268 81 9721ft 180kts
24-Mar-20 10:04 33.590546 -117.721976 81 12050ft 188kts
24-Mar-20 10:05 33.598604 -117.649921 81 12977ft 261kts
24-Mar-20 10:06 33.609132 -117.557323 81 12942ft 290kts
24-Mar-20 10:07 33.620233 -117.460230 81 12917ft 295kts
24-Mar-20 10:08 33.631477 -117.362238 81 12896ft 295kts
24-Mar-20 10:09 33.642738 -117.264754 81 12888ft 295kts
24-Mar-20 10:10 33.654034 -117.167186 81 12889ft 294kts
24-Mar-20 10:11 33.665244 -117.069271 81 12889ft 294kts
24-Mar-20 10:12 33.675453 -116.972156 81 12889ft 292kts
24-Mar-20 10:13 33.684913 -116.875171 79 12889ft 290kts
24-Mar-20 10:14 33.681873 -116.778245 93 12952ft 289kts
24-Mar-20 10:15 33.673754 -116.681474 94 12931ft 291kts
24-Mar-20 10:16 33.665439 -116.584647 94 12910ft 291kts
24-Mar-20 10:17 33.657062 -116.487958 94 12888ft 291kts
24-Mar-20 10:18 33.648594 -116.391126 94 12867ft 291kts
24-Mar-20 10:19 33.640049 -116.294228 94 12862ft 290kts
24-Mar-20 10:20 33.681495 -116.220684 36 12976ft 287kts
24-Mar-20 10:21 33.742752 -116.157776 38 12972ft 291kts
24-Mar-20 10:22 33.804064 -116.093731 38 12976ft 292kts
24-Mar-20 10:23 33.865407 -116.029528 38 12997ft 292kts
24-Mar-20 10:24 33.935898 -115.995193 355 11593ft 281kts
24-Mar-20 10:25 34.008441 -115.993720 12 9664ft 250kts
24-Mar-20 10:26 34.055244 -115.940064 48 7034ft 217kts
24-Mar-20 10:27 34.100684 -115.905964 6 4741ft 190kts
24-Mar-20 10:28 34.141817 -115.929936 290 3199ft 144kts
24-Mar-20 10:29 34.129986 -115.960868 183 2826ft 119kts
24-Mar-20 10:30 34.116158 -115.947419 9 2216ft 93kts
24-Mar-20 10:31 34.132912 -115.948023 4 1890ft 20kts
24-Mar-20 10:32 34.135203 -115.945807 91 1888ft 13kts
24-Mar-20 10:33 34.135144 -115.941559 155 1889ft 9kts
24-Mar-20 10:34 34.134393 -115.942289 269 1890ft 25kts
24-Mar-20 10:35 34.130544 -115.977062 255 3857ft 125kts
24-Mar-20 10:36 34.119621 -116.019080 256 6190ft 150kts
24-Mar-20 10:37 34.107049 -116.072886 256 8579ft 178kts
24-Mar-20 10:38 34.093676 -116.130472 254 10794ft 177kts

Navigation Log

Ident Type
Flight plan parsing failed, navigation log unavailable